createdAt,value
2023-08-15T00:00:57.840Z,3.30
2023-08-15T00:03:25.437Z,2.92
2023-08-15T00:05:52.649Z,3.15
2023-08-15T00:08:20.197Z,3.33
2023-08-15T00:10:47.673Z,3.78
2023-08-15T00:13:14.937Z,3.58
2023-08-15T00:15:42.323Z,4.40
2023-08-15T00:18:09.773Z,3.60
2023-08-15T00:20:37.198Z,4.18
2023-08-15T00:23:04.839Z,4.38
2023-08-15T00:25:32.289Z,3.47
2023-08-15T00:27:59.605Z,4.22
2023-08-15T00:30:26.848Z,4.32
2023-08-15T00:32:54.111Z,3.60
2023-08-15T00:35:21.561Z,3.92
2023-08-15T00:37:49.001Z,3.65
2023-08-15T00:40:16.224Z,3.90
2023-08-15T00:42:43.704Z,3.63
2023-08-15T00:45:11.393Z,3.50
2023-08-15T00:47:39.497Z,3.50
2023-08-15T00:50:10.018Z,5.72
2023-08-15T00:52:37.892Z,4.43
2023-08-15T00:55:05.910Z,5.82
2023-08-15T00:57:33.157Z,4.20
2023-08-15T01:00:00.690Z,3.42
2023-08-15T01:02:28.382Z,4.07
2023-08-15T01:04:55.782Z,4.45
2023-08-15T01:07:23.121Z,3.83
2023-08-15T01:09:50.996Z,4.15
2023-08-15T01:12:45.599Z,4.05
2023-08-15T01:15:21.358Z,3.95
2023-08-15T01:18:30.197Z,4.07
2023-08-15T01:20:58.725Z,5.55
2023-08-15T01:23:43.765Z,4.40
2023-08-15T01:26:11.541Z,4.45
2023-08-15T01:28:42.173Z,4.00
2023-08-15T01:31:13.565Z,3.85
2023-08-15T01:33:50.154Z,4.20
2023-08-15T01:36:24.192Z,3.47
2023-08-15T01:39:01.130Z,4.10
2023-08-15T01:41:32.936Z,4.40
2023-08-15T01:44:02.237Z,3.88
2023-08-15T01:46:29.652Z,4.05
2023-08-15T01:48:59.175Z,4.07
2023-08-15T01:51:26.713Z,3.53
2023-08-15T01:53:54.434Z,4.00
2023-08-15T01:56:21.786Z,4.97
2023-08-15T01:58:48.904Z,4.80
2023-08-15T02:01:16.085Z,3.70
2023-08-15T02:03:43.749Z,5.00
2023-08-15T02:06:11.044Z,4.20
2023-08-15T02:08:38.288Z,4.55
2023-08-15T02:11:05.715Z,4.15
2023-08-15T02:13:34.912Z,3.88
2023-08-15T02:16:03.186Z,4.10
2023-08-15T02:18:31.437Z,4.95
2023-08-15T02:20:59.144Z,4.38
2023-08-15T02:23:26.615Z,5.28
2023-08-15T02:25:54.005Z,4.47
2023-08-15T02:28:21.239Z,4.93
2023-08-15T02:30:48.878Z,4.25
2023-08-15T02:33:16.382Z,4.38
2023-08-15T02:35:43.820Z,4.63
2023-08-15T02:38:11.512Z,6.03
2023-08-15T02:40:38.959Z,4.50
2023-08-15T02:43:06.345Z,4.22
2023-08-15T02:45:33.657Z,4.30
2023-08-15T02:48:01.056Z,4.45
2023-08-15T02:50:29.015Z,4.13
2023-08-15T02:52:56.303Z,4.13
2023-08-15T02:55:23.462Z,4.40
2023-08-15T02:57:51.152Z,4.22
2023-08-15T03:00:18.684Z,6.05
2023-08-15T03:02:46.061Z,4.20
2023-08-15T03:05:13.790Z,4.78
2023-08-15T03:07:41.343Z,4.22
2023-08-15T03:10:09.218Z,4.18
2023-08-15T03:12:36.895Z,4.30
2023-08-15T03:15:06.732Z,4.47
2023-08-15T03:17:34.888Z,3.90
2023-08-15T03:20:02.267Z,4.20
2023-08-15T03:22:29.845Z,5.15
2023-08-15T03:24:59.757Z,4.68
2023-08-15T03:27:27.242Z,4.57
2023-08-15T03:29:55.626Z,4.47
2023-08-15T03:32:23.650Z,3.78
2023-08-15T03:34:51.016Z,3.95
2023-08-15T03:37:18.431Z,4.05
2023-08-15T03:39:46.085Z,4.50
2023-08-15T03:42:13.803Z,4.07
2023-08-15T03:44:41.563Z,4.68
2023-08-15T03:47:09.266Z,7.05
2023-08-15T03:49:36.726Z,5.15
2023-08-15T03:52:04.124Z,3.88
2023-08-15T03:54:32.161Z,3.88
2023-08-15T03:56:59.764Z,3.92
2023-08-15T03:59:27.366Z,3.63
2023-08-15T04:01:59.297Z,3.95
2023-08-15T04:04:29.894Z,3.78
2023-08-15T04:06:57.341Z,4.10
2023-08-15T04:09:25.021Z,4.72
2023-08-15T04:11:52.841Z,3.50
2023-08-15T04:14:20.342Z,3.78
2023-08-15T04:16:49.304Z,4.95
2023-08-15T04:19:17.632Z,3.83
2023-08-15T04:21:44.992Z,3.88
2023-08-15T04:24:13.234Z,4.40
2023-08-15T04:26:41.408Z,5.90
2023-08-15T04:29:12.189Z,5.85
2023-08-15T04:31:39.939Z,4.53
2023-08-15T04:34:08.968Z,6.07
2023-08-15T04:36:38.188Z,4.63
2023-08-15T04:39:08.048Z,3.88
2023-08-15T04:41:35.876Z,4.40
2023-08-15T04:44:03.897Z,3.72
2023-08-15T04:46:31.970Z,3.72
2023-08-15T04:49:00.767Z,4.18
2023-08-15T04:51:29.279Z,4.90
2023-08-15T04:53:57.586Z,4.38
2023-08-15T04:56:29.278Z,5.35
2023-08-15T04:58:58.850Z,4.78
2023-08-15T05:01:27.192Z,4.20
2023-08-15T05:03:58.184Z,6.28
2023-08-15T05:06:26.205Z,5.72
2023-08-15T05:08:54.602Z,4.47
2023-08-15T05:11:24.943Z,7.15
2023-08-15T05:13:53.224Z,4.68
2023-08-15T05:16:21.953Z,4.05
2023-08-15T05:18:50.412Z,4.57
2023-08-15T05:21:20.481Z,4.75
2023-08-15T05:23:49.302Z,4.82
2023-08-15T05:26:18.134Z,4.13
2023-08-15T05:28:54.870Z,4.93
2023-08-15T05:31:23.010Z,4.07
2023-08-15T05:33:51.224Z,4.03
2023-08-15T05:36:19.714Z,4.20
2023-08-15T05:38:50.675Z,4.68
2023-08-15T05:41:18.934Z,3.95
2023-08-15T05:43:47.313Z,3.80
2023-08-15T05:46:15.836Z,4.68
2023-08-15T05:48:47.217Z,4.28
2023-08-15T05:51:15.204Z,5.15
2023-08-15T05:53:43.670Z,4.10
2023-08-15T05:56:12.092Z,3.75
2023-08-15T05:58:42.365Z,4.05
2023-08-15T06:01:10.402Z,4.07
2023-08-15T06:03:51.980Z,3.53
2023-08-15T06:06:23.036Z,3.47
2023-08-15T06:08:51.829Z,2.92
2023-08-15T06:11:20.237Z,3.25
2023-08-15T06:13:49.624Z,3.15
2023-08-15T06:16:18.308Z,4.15
2023-08-15T06:18:46.085Z,2.78
2023-08-15T06:21:14.508Z,3.28
2023-08-15T06:23:49.542Z,3.20
2023-08-15T06:26:18.104Z,4.18
2023-08-15T06:28:46.943Z,3.38
2023-08-15T06:31:14.525Z,3.38
2023-08-15T06:33:42.819Z,3.42
2023-08-15T06:36:11.592Z,2.85
2023-08-15T06:38:39.856Z,3.03
2023-08-15T06:41:08.334Z,2.75
2023-08-15T06:43:37.049Z,3.13
2023-08-15T06:46:06.263Z,3.58
2023-08-15T06:48:34.097Z,3.78
2023-08-15T06:51:02.382Z,3.17
2023-08-15T06:53:31.053Z,3.10
2023-08-15T06:56:00.260Z,5.18
2023-08-15T06:58:29.440Z,3.40
2023-08-15T07:01:02.699Z,3.20
2023-08-15T07:03:34.426Z,3.65
2023-08-15T07:06:06.131Z,3.45
2023-08-15T07:08:34.406Z,3.30
2023-08-15T07:11:06.875Z,3.30
2023-08-15T07:13:36.839Z,2.67
2023-08-15T07:16:05.147Z,3.00
2023-08-15T07:18:36.546Z,2.85
2023-08-15T07:21:12.373Z,3.33
2023-08-15T07:23:52.603Z,2.42
2023-08-15T07:26:26.006Z,2.88
2023-08-15T07:29:04.954Z,2.60
2023-08-15T07:31:39.758Z,3.05
2023-08-15T07:34:08.120Z,2.60
2023-08-15T07:36:37.289Z,2.35
2023-08-15T07:39:08.469Z,2.75
2023-08-15T07:41:37.726Z,3.05
2023-08-15T07:44:06.371Z,2.38
2023-08-15T07:46:34.783Z,2.90
2023-08-15T07:49:04.400Z,2.88
2023-08-15T07:51:33.225Z,2.28
2023-08-15T07:54:02.022Z,2.55
2023-08-15T07:56:35.585Z,2.53
2023-08-15T07:59:05.733Z,2.35
2023-08-15T08:01:33.777Z,2.53
2023-08-15T08:04:03.269Z,3.45
2023-08-15T08:06:40.297Z,2.60
2023-08-15T08:09:11.471Z,3.58
2023-08-15T08:11:40.251Z,2.47
2023-08-15T08:14:15.171Z,2.75
2023-08-15T08:16:43.380Z,3.33
2023-08-15T08:19:13.305Z,1.92
2023-08-15T08:21:41.860Z,2.15
2023-08-15T08:24:10.322Z,2.40
2023-08-15T08:26:39.343Z,2.20
2023-08-15T08:29:10.485Z,2.40
2023-08-15T08:31:41.839Z,2.95
2023-08-15T08:34:15.887Z,3.75
2023-08-15T08:36:48.808Z,2.10
2023-08-15T08:39:31.335Z,2.20
2023-08-15T08:42:06.630Z,2.30
2023-08-15T08:44:36.007Z,2.20
2023-08-15T08:47:06.646Z,2.20
2023-08-15T08:49:40.544Z,2.00
2023-08-15T08:52:15.362Z,2.20
2023-08-15T08:54:56.553Z,3.15
2023-08-15T08:57:31.058Z,2.38
2023-08-15T09:00:02.965Z,2.22
2023-08-15T09:02:32.527Z,2.28
2023-08-15T09:05:02.472Z,2.30
2023-08-15T09:07:34.871Z,2.95
2023-08-15T09:10:03.239Z,2.30
2023-08-15T09:12:41.516Z,1.98
2023-08-15T09:15:11.938Z,2.53
2023-08-15T09:17:45.178Z,1.95
2023-08-15T09:20:20.592Z,2.30
2023-08-15T09:22:52.839Z,1.90
2023-08-15T09:25:27.027Z,2.00
2023-08-15T09:28:06.939Z,2.28
2023-08-15T09:30:35.444Z,3.25
2023-08-15T09:33:09.542Z,2.75
2023-08-15T09:35:45.553Z,3.10
2023-08-15T09:38:19.610Z,1.67
2023-08-15T09:40:50.431Z,1.80
2023-08-15T09:43:21.479Z,2.50
2023-08-15T09:45:52.042Z,2.75
2023-08-15T09:48:22.004Z,2.00
2023-08-15T09:50:57.735Z,2.15
2023-08-15T09:53:27.370Z,2.17
2023-08-15T09:55:56.560Z,2.10
2023-08-15T09:58:36.923Z,1.90
2023-08-15T10:01:15.172Z,2.15
2023-08-15T10:03:56.000Z,2.53
2023-08-15T10:06:34.920Z,1.70
2023-08-15T10:09:16.704Z,3.08
2023-08-15T10:11:56.246Z,1.80
2023-08-15T10:14:30.314Z,1.70
2023-08-15T10:20:41.679Z,1.73
2023-08-15T10:23:40.770Z,2.10
2023-08-15T10:26:17.969Z,1.63
2023-08-15T10:29:05.961Z,1.40
2023-08-15T10:31:52.337Z,1.60
2023-08-15T10:34:24.330Z,1.50
2023-08-15T10:37:38.571Z,1.60
2023-08-15T10:40:15.171Z,1.88
2023-08-15T10:43:08.081Z,1.30
2023-08-15T10:46:07.276Z,1.35
2023-08-15T10:49:03.740Z,1.30
2023-08-15T10:51:41.688Z,2.42
2023-08-15T10:54:17.095Z,1.50
2023-08-15T10:56:48.497Z,1.50
2023-08-15T10:59:20.506Z,1.17
2023-08-15T11:01:50.806Z,1.25
2023-08-15T11:04:25.981Z,1.50
2023-08-15T11:06:57.052Z,8.68
2023-08-15T11:09:36.830Z,1.25
2023-08-15T11:12:22.840Z,2.67
2023-08-15T11:14:57.279Z,1.23
2023-08-15T11:17:40.982Z,1.30
2023-08-15T11:20:16.422Z,1.38
2023-08-15T11:23:04.376Z,2.17
2023-08-15T11:26:02.241Z,1.48
2023-08-15T11:28:42.439Z,1.65
2023-08-15T11:31:22.955Z,1.88
2023-08-15T11:34:00.212Z,1.90
2023-08-15T11:36:35.206Z,1.58
2023-08-15T11:39:22.031Z,2.92
2023-08-15T11:42:02.651Z,2.40
2023-08-15T11:44:33.512Z,1.60
2023-08-15T11:47:05.894Z,1.80
2023-08-15T11:49:46.502Z,2.45
2023-08-15T11:52:29.947Z,2.03
2023-08-15T11:55:16.242Z,2.33
2023-08-15T11:58:05.326Z,1.45
2023-08-15T12:00:39.443Z,2.33
2023-08-15T12:03:12.265Z,2.42
2023-08-15T12:05:46.722Z,2.40
2023-08-15T12:08:18.554Z,2.42
2023-08-15T12:10:47.974Z,3.50
2023-08-15T12:13:15.775Z,3.47
2023-08-15T12:15:44.398Z,2.25
2023-08-15T12:18:15.392Z,1.98
2023-08-15T12:20:48.400Z,2.08
2023-08-15T12:23:43.553Z,2.88
2023-08-15T12:26:21.300Z,2.78
2023-08-15T12:28:50.559Z,2.08
2023-08-15T12:31:19.106Z,1.95
2023-08-15T12:33:48.256Z,2.20
2023-08-15T12:36:19.067Z,2.05
2023-08-15T12:38:48.405Z,5.38
2023-08-15T12:41:19.953Z,2.22
2023-08-15T12:43:54.795Z,2.35
2023-08-15T12:46:26.086Z,2.83
2023-08-15T12:49:01.769Z,2.10
2023-08-15T12:51:40.133Z,2.70
2023-08-15T12:54:31.503Z,3.47
2023-08-15T12:57:06.653Z,1.95
2023-08-15T12:59:35.213Z,4.10
2023-08-15T13:02:06.093Z,3.00
2023-08-15T13:04:46.858Z,2.95
2023-08-15T13:07:21.656Z,3.75
2023-08-15T13:09:55.813Z,2.38
2023-08-15T13:12:25.190Z,4.88
2023-08-15T13:15:00.166Z,3.50
2023-08-15T13:17:29.408Z,3.40
2023-08-15T13:20:13.206Z,2.33
2023-08-15T13:22:48.143Z,3.15
2023-08-15T13:25:24.093Z,3.25
2023-08-15T13:27:55.615Z,2.65
2023-08-15T13:30:32.140Z,3.88
2023-08-15T13:33:04.612Z,2.70
2023-08-15T13:35:32.232Z,2.90
2023-08-15T13:38:00.110Z,3.55
2023-08-15T13:40:30.354Z,2.95
2023-08-15T13:43:00.609Z,13.07
2023-08-15T13:45:29.362Z,61.45
2023-08-15T13:48:08.496Z,28.67
2023-08-15T13:50:43.930Z,11.40
2023-08-15T13:53:12.908Z,6.35
2023-08-15T13:55:48.186Z,3.80
2023-08-15T13:58:18.109Z,5.60
2023-08-15T14:00:53.524Z,4.72
2023-08-15T14:03:24.432Z,3.60
2023-08-15T14:06:00.834Z,2.80
2023-08-15T14:11:08.163Z,6.93
2023-08-15T14:13:43.109Z,4.93
2023-08-15T14:16:21.142Z,2.95
2023-08-15T14:18:59.202Z,4.35
2023-08-15T14:21:34.871Z,2.60
2023-08-15T14:24:08.631Z,3.22
2023-08-15T14:26:41.710Z,4.45
2023-08-15T14:29:13.482Z,3.97
2023-08-15T14:31:43.845Z,3.63
2023-08-15T14:34:12.449Z,3.42
2023-08-15T14:37:03.454Z,5.32
2023-08-15T14:39:50.826Z,4.18
2023-08-15T14:42:19.807Z,3.63
2023-08-15T14:44:54.770Z,4.47
2023-08-15T14:47:33.404Z,3.47
2023-08-15T14:50:06.386Z,3.25
2023-08-15T14:52:43.666Z,6.35
2023-08-15T14:55:16.942Z,3.80
2023-08-15T14:57:50.864Z,2.97
2023-08-15T15:00:19.442Z,4.60
2023-08-15T15:02:49.855Z,5.15
2023-08-15T15:05:20.905Z,3.40
2023-08-15T15:08:03.001Z,5.72
2023-08-15T15:10:42.795Z,3.60
2023-08-15T15:13:20.551Z,3.33
2023-08-15T15:15:54.347Z,3.20
2023-08-15T15:18:30.317Z,4.38
2023-08-15T15:21:03.967Z,4.95
2023-08-15T15:23:35.185Z,4.20
2023-08-15T15:26:17.004Z,4.60
2023-08-15T15:28:58.185Z,4.75
2023-08-15T15:31:34.734Z,3.15
2023-08-15T15:34:07.939Z,3.45
2023-08-15T15:36:41.102Z,4.43
2023-08-15T15:39:16.868Z,3.38
2023-08-15T15:41:46.460Z,3.20
2023-08-15T15:44:17.325Z,4.18
2023-08-15T15:46:54.671Z,3.28
2023-08-15T15:49:24.867Z,4.57
2023-08-15T15:51:53.954Z,6.05
2023-08-15T15:54:29.671Z,3.20
2023-08-15T15:56:59.343Z,3.38
2023-08-15T15:59:28.957Z,6.40
2023-08-15T16:02:02.234Z,3.28
2023-08-15T16:04:32.020Z,3.45
2023-08-15T16:07:10.577Z,3.65
2023-08-15T16:09:52.560Z,5.07
2023-08-15T16:12:38.086Z,6.68
2023-08-15T16:15:09.786Z,10.20
2023-08-15T16:17:45.201Z,6.18
2023-08-15T16:20:19.741Z,5.90
2023-08-15T16:25:40.780Z,3.38
2023-08-15T16:28:14.207Z,3.90
2023-08-15T16:30:57.036Z,3.70
2023-08-15T16:33:26.453Z,3.25
2023-08-15T16:35:54.757Z,5.28
2023-08-15T16:38:25.954Z,3.92
2023-08-15T16:40:59.886Z,5.18
2023-08-15T16:43:31.103Z,6.32
2023-08-15T16:46:04.137Z,6.43
2023-08-15T16:48:34.786Z,4.70
2023-08-15T16:51:03.591Z,3.70
2023-08-15T16:53:31.891Z,5.90
2023-08-15T16:56:01.825Z,3.90
2023-08-15T17:01:26.764Z,5.47
2023-08-15T17:03:59.061Z,6.78
2023-08-15T17:06:29.329Z,5.43
2023-08-15T17:09:08.830Z,5.43
2023-08-15T17:11:41.153Z,4.95
2023-08-15T17:14:12.696Z,4.82
2023-08-15T17:16:44.743Z,6.70
2023-08-15T17:19:18.484Z,4.35
2023-08-15T17:21:53.970Z,4.68
2023-08-15T17:24:30.140Z,4.55
2023-08-15T17:26:58.400Z,4.60
2023-08-15T17:29:29.573Z,4.18
2023-08-15T17:31:57.784Z,7.45
2023-08-15T17:34:35.376Z,4.20
2023-08-15T17:37:12.578Z,5.18
2023-08-15T17:39:49.473Z,6.30
2023-08-15T17:42:32.625Z,4.70
2023-08-15T17:45:00.588Z,4.35
2023-08-15T17:47:28.948Z,5.38
2023-08-15T17:49:58.320Z,4.97
2023-08-15T17:52:28.056Z,9.48
2023-08-15T17:54:58.370Z,5.47
2023-08-15T17:57:28.660Z,4.68
2023-08-15T17:59:57.556Z,4.78
2023-08-15T18:02:27.710Z,4.40
2023-08-15T18:04:57.123Z,8.32
2023-08-15T18:07:25.292Z,5.03
2023-08-15T18:09:53.428Z,7.03
2023-08-15T18:12:26.847Z,5.43
2023-08-15T18:14:59.475Z,5.28
2023-08-15T18:17:34.330Z,6.07
2023-08-15T18:20:11.689Z,7.78
2023-08-15T18:22:59.688Z,7.03
2023-08-15T18:25:28.485Z,5.90
2023-08-15T18:27:55.759Z,10.27
2023-08-15T18:30:22.934Z,5.70
2023-08-15T18:32:50.429Z,6.80
2023-08-15T18:35:17.702Z,6.80
2023-08-15T18:37:47.446Z,6.97
2023-08-15T18:40:19.191Z,6.22
2023-08-15T18:42:48.333Z,7.22
2023-08-15T18:45:16.284Z,5.65
2023-08-15T18:47:43.806Z,5.82
2023-08-15T18:50:12.853Z,5.63
2023-08-15T18:52:41.036Z,5.68
2023-08-15T18:55:09.520Z,6.15
2023-08-15T18:57:37.043Z,5.90
2023-08-15T19:00:06.523Z,5.53
2023-08-15T19:02:34.833Z,6.30
2023-08-15T19:05:02.616Z,5.80
2023-08-15T19:07:29.964Z,5.75
2023-08-15T19:09:57.868Z,5.40
2023-08-15T19:12:26.678Z,5.15
2023-08-15T19:14:56.482Z,4.78
2023-08-15T19:17:24.447Z,7.85
2023-08-15T19:19:51.804Z,6.28
2023-08-15T19:22:19.194Z,6.05
2023-08-15T19:24:46.678Z,5.85
2023-08-15T19:27:14.102Z,5.85
2023-08-15T19:29:41.611Z,6.32
2023-08-15T19:32:09.593Z,6.38
2023-08-15T19:34:47.413Z,6.13
2023-08-15T19:37:23.237Z,5.57
2023-08-15T19:39:58.972Z,6.75
2023-08-15T19:42:27.005Z,6.40
2023-08-15T19:44:54.325Z,6.63
2023-08-15T19:47:21.757Z,7.47
2023-08-15T19:49:49.419Z,6.40
2023-08-15T19:52:18.133Z,7.13
2023-08-15T19:54:45.816Z,7.28
2023-08-15T19:57:13.150Z,6.90
2023-08-15T19:59:41.192Z,7.13
2023-08-15T20:02:08.748Z,7.97
2023-08-15T20:04:36.321Z,7.50
2023-08-15T20:07:04.278Z,7.45
2023-08-15T20:09:31.812Z,8.88
2023-08-15T20:11:59.481Z,8.32
2023-08-15T20:14:29.397Z,8.05
2023-08-15T20:16:56.955Z,7.72
2023-08-15T20:19:24.427Z,7.85
2023-08-15T20:21:52.184Z,9.13
2023-08-15T20:24:20.312Z,8.15
2023-08-15T20:26:47.946Z,9.18
2023-08-15T20:29:16.081Z,8.77
2023-08-15T20:31:43.507Z,9.30
2023-08-15T20:34:11.761Z,8.75
2023-08-15T20:36:39.005Z,9.65
2023-08-15T20:39:06.600Z,9.88
2023-08-15T20:41:35.493Z,9.90
2023-08-15T20:44:03.104Z,9.43
2023-08-15T20:46:41.326Z,8.88
2023-08-15T20:49:09.928Z,9.50
2023-08-15T20:51:38.344Z,8.82
2023-08-15T20:54:05.645Z,9.65
2023-08-15T20:56:34.272Z,10.30
2023-08-15T20:59:03.260Z,10.65
2023-08-15T21:01:30.763Z,9.93
2023-08-15T21:03:58.107Z,10.07
2023-08-15T21:06:26.498Z,9.70
2023-08-15T21:08:53.902Z,9.85
2023-08-15T21:11:21.430Z,10.82
2023-08-15T21:13:49.183Z,10.07
2023-08-15T21:16:16.398Z,10.73
2023-08-15T21:18:43.938Z,10.07
2023-08-15T21:21:11.771Z,9.57
2023-08-15T21:23:39.395Z,10.35
2023-08-15T21:26:07.007Z,9.52
2023-08-15T21:28:34.294Z,9.98
2023-08-15T21:31:01.661Z,10.00
2023-08-15T21:33:29.143Z,10.48
2023-08-15T21:35:56.473Z,11.13
2023-08-15T21:38:23.786Z,10.32
2023-08-15T21:40:51.611Z,9.95
2023-08-15T21:43:19.345Z,9.73
2023-08-15T21:45:46.579Z,9.52
2023-08-15T21:48:14.131Z,9.75
2023-08-15T21:50:41.426Z,9.45
2023-08-15T21:53:08.715Z,8.80
2023-08-15T21:55:36.131Z,9.23
2023-08-15T21:58:03.521Z,8.60
2023-08-15T22:00:30.957Z,8.35
2023-08-15T22:02:58.748Z,8.73
2023-08-15T22:05:26.973Z,9.25
2023-08-15T22:07:54.411Z,8.40
2023-08-15T22:10:23.765Z,8.43
2023-08-15T22:12:51.967Z,7.88
2023-08-15T22:15:20.352Z,7.97
2023-08-15T22:17:57.194Z,8.15
2023-08-15T22:20:28.279Z,7.68
2023-08-15T22:22:55.741Z,7.35
2023-08-15T22:25:23.960Z,7.40
2023-08-15T22:27:51.661Z,7.53
2023-08-15T22:30:19.160Z,7.10
2023-08-15T22:32:46.422Z,8.30
2023-08-15T22:35:13.711Z,7.40
2023-08-15T22:37:41.245Z,7.43
2023-08-15T22:40:09.045Z,7.22
2023-08-15T22:42:36.293Z,8.20
2023-08-15T22:45:04.363Z,7.18
2023-08-15T22:47:31.641Z,7.95
2023-08-15T22:49:58.957Z,9.25
2023-08-15T22:52:26.730Z,7.93
2023-08-15T22:54:54.177Z,8.05
2023-08-15T22:57:21.861Z,8.32
2023-08-15T22:59:49.505Z,9.18
2023-08-15T23:02:16.810Z,9.38
2023-08-15T23:04:43.995Z,9.25
2023-08-15T23:07:11.501Z,9.50
2023-08-15T23:09:38.886Z,11.02
2023-08-15T23:12:06.337Z,10.10
2023-08-15T23:14:33.611Z,10.73
2023-08-15T23:17:00.991Z,11.38
2023-08-15T23:19:28.274Z,11.35
2023-08-15T23:21:55.453Z,13.13
2023-08-15T23:24:22.916Z,11.40
2023-08-15T23:26:50.245Z,11.70
2023-08-15T23:29:17.510Z,13.70
2023-08-15T23:31:44.907Z,10.52
2023-08-15T23:34:12.249Z,10.57
2023-08-15T23:36:39.837Z,10.05
2023-08-15T23:39:07.777Z,9.75
2023-08-15T23:41:35.054Z,10.50
2023-08-15T23:44:02.196Z,9.75
2023-08-15T23:46:30.071Z,9.07
2023-08-15T23:48:57.439Z,9.63
2023-08-15T23:51:24.848Z,9.93
2023-08-15T23:53:52.324Z,10.00
2023-08-15T23:56:19.679Z,9.57
2023-08-15T23:58:49.043Z,10.25
